sensor_id;sensor_type;location;lat;lon;timestamp;P1;durP1;ratioP1;P2;durP2;ratioP2
5869;SDS011;2961;47.702;9.410;2024-02-14T00:00:19;5.70;;;4.37;;
5869;SDS011;2961;47.702;9.410;2024-02-14T00:02:46;7.60;;;5.10;;
5869;SDS011;2961;47.702;9.410;2024-02-14T00:05:14;5.33;;;4.40;;
5869;SDS011;2961;47.702;9.410;2024-02-14T00:07:42;6.27;;;4.77;;
5869;SDS011;2961;47.702;9.410;2024-02-14T00:10:09;5.10;;;4.10;;
5869;SDS011;2961;47.702;9.410;2024-02-14T00:12:36;8.83;;;4.70;;
5869;SDS011;2961;47.702;9.410;2024-02-14T00:15:03;4.97;;;4.47;;
5869;SDS011;2961;47.702;9.410;2024-02-14T00:17:32;10.73;;;4.83;;
5869;SDS011;2961;47.702;9.410;2024-02-14T00:19:59;8.00;;;4.23;;
5869;SDS011;2961;47.702;9.410;2024-02-14T00:22:26;6.40;;;3.70;;
5869;SDS011;2961;47.702;9.410;2024-02-14T00:24:54;6.90;;;4.60;;
5869;SDS011;2961;47.702;9.410;2024-02-14T00:27:21;5.63;;;4.10;;
5869;SDS011;2961;47.702;9.410;2024-02-14T00:29:49;9.47;;;4.67;;
5869;SDS011;2961;47.702;9.410;2024-02-14T00:32:16;7.30;;;4.80;;
5869;SDS011;2961;47.702;9.410;2024-02-14T00:34:43;13.50;;;4.90;;
5869;SDS011;2961;47.702;9.410;2024-02-14T00:37:10;6.57;;;4.43;;
5869;SDS011;2961;47.702;9.410;2024-02-14T00:39:37;11.63;;;5.07;;
5869;SDS011;2961;47.702;9.410;2024-02-14T00:42:05;13.47;;;4.70;;
5869;SDS011;2961;47.702;9.410;2024-02-14T00:44:32;8.80;;;5.17;;
5869;SDS011;2961;47.702;9.410;2024-02-14T00:46:59;5.37;;;3.97;;
5869;SDS011;2961;47.702;9.410;2024-02-14T00:49:27;8.40;;;4.57;;
5869;SDS011;2961;47.702;9.410;2024-02-14T00:51:54;6.87;;;6.17;;
5869;SDS011;2961;47.702;9.410;2024-02-14T00:54:21;12.50;;;3.60;;
5869;SDS011;2961;47.702;9.410;2024-02-14T00:56:48;9.87;;;4.80;;
5869;SDS011;2961;47.702;9.410;2024-02-14T00:59:16;6.10;;;4.23;;
5869;SDS011;2961;47.702;9.410;2024-02-14T01:01:43;13.17;;;4.10;;
5869;SDS011;2961;47.702;9.410;2024-02-14T01:04:10;4.17;;;3.37;;
5869;SDS011;2961;47.702;9.410;2024-02-14T01:06:37;3.53;;;3.20;;
5869;SDS011;2961;47.702;9.410;2024-02-14T01:09:04;5.67;;;3.67;;
5869;SDS011;2961;47.702;9.410;2024-02-14T01:11:31;3.43;;;3.17;;
5869;SDS011;2961;47.702;9.410;2024-02-14T01:13:58;7.67;;;3.53;;
5869;SDS011;2961;47.702;9.410;2024-02-14T01:16:26;4.37;;;3.60;;
5869;SDS011;2961;47.702;9.410;2024-02-14T01:18:53;4.00;;;3.30;;
5869;SDS011;2961;47.702;9.410;2024-02-14T01:21:19;6.33;;;3.87;;
5869;SDS011;2961;47.702;9.410;2024-02-14T01:23:46;9.83;;;4.50;;
5869;SDS011;2961;47.702;9.410;2024-02-14T01:26:13;7.67;;;3.93;;
5869;SDS011;2961;47.702;9.410;2024-02-14T01:28:40;8.70;;;3.10;;
5869;SDS011;2961;47.702;9.410;2024-02-14T01:31:09;5.50;;;3.20;;
5869;SDS011;2961;47.702;9.410;2024-02-14T01:33:38;4.07;;;2.93;;
5869;SDS011;2961;47.702;9.410;2024-02-14T01:36:05;5.80;;;2.93;;
5869;SDS011;2961;47.702;9.410;2024-02-14T01:38:32;5.83;;;3.83;;
5869;SDS011;2961;47.702;9.410;2024-02-14T01:41:00;3.70;;;3.37;;
5869;SDS011;2961;47.702;9.410;2024-02-14T01:43:28;7.27;;;4.33;;
5869;SDS011;2961;47.702;9.410;2024-02-14T01:45:55;3.63;;;3.00;;
5869;SDS011;2961;47.702;9.410;2024-02-14T01:48:29;6.23;;;3.90;;
5869;SDS011;2961;47.702;9.410;2024-02-14T01:50:58;7.77;;;3.60;;
5869;SDS011;2961;47.702;9.410;2024-02-14T01:53:25;3.83;;;3.33;;
5869;SDS011;2961;47.702;9.410;2024-02-14T01:55:55;9.00;;;3.33;;
5869;SDS011;2961;47.702;9.410;2024-02-14T01:58:22;6.27;;;3.03;;
5869;SDS011;2961;47.702;9.410;2024-02-14T02:00:49;3.63;;;3.33;;
5869;SDS011;2961;47.702;9.410;2024-02-14T02:03:20;8.43;;;3.80;;
5869;SDS011;2961;47.702;9.410;2024-02-14T02:05:48;4.57;;;3.63;;
5869;SDS011;2961;47.702;9.410;2024-02-14T02:08:16;3.53;;;3.23;;
5869;SDS011;2961;47.702;9.410;2024-02-14T02:10:43;6.73;;;3.60;;
5869;SDS011;2961;47.702;9.410;2024-02-14T02:13:10;5.00;;;3.20;;
5869;SDS011;2961;47.702;9.410;2024-02-14T02:15:37;8.60;;;3.70;;
5869;SDS011;2961;47.702;9.410;2024-02-14T02:18:04;6.40;;;3.60;;
5869;SDS011;2961;47.702;9.410;2024-02-14T02:20:31;4.60;;;3.03;;
5869;SDS011;2961;47.702;9.410;2024-02-14T02:22:59;5.50;;;4.33;;
5869;SDS011;2961;47.702;9.410;2024-02-14T02:25:27;4.93;;;3.13;;
5869;SDS011;2961;47.702;9.410;2024-02-14T02:27:54;5.40;;;3.53;;
5869;SDS011;2961;47.702;9.410;2024-02-14T02:30:21;13.53;;;5.50;;
5869;SDS011;2961;47.702;9.410;2024-02-14T02:32:49;9.00;;;3.80;;
5869;SDS011;2961;47.702;9.410;2024-02-14T02:35:16;4.43;;;3.43;;
5869;SDS011;2961;47.702;9.410;2024-02-14T02:37:45;5.00;;;3.93;;
5869;SDS011;2961;47.702;9.410;2024-02-14T02:40:14;3.00;;;2.47;;
5869;SDS011;2961;47.702;9.410;2024-02-14T02:42:42;4.17;;;3.77;;
5869;SDS011;2961;47.702;9.410;2024-02-14T02:45:10;3.00;;;2.70;;
5869;SDS011;2961;47.702;9.410;2024-02-14T02:47:37;3.63;;;3.30;;
5869;SDS011;2961;47.702;9.410;2024-02-14T02:50:05;3.10;;;2.70;;
5869;SDS011;2961;47.702;9.410;2024-02-14T02:52:33;6.07;;;3.40;;
5869;SDS011;2961;47.702;9.410;2024-02-14T02:54:59;3.60;;;3.30;;
5869;SDS011;2961;47.702;9.410;2024-02-14T02:57:28;3.73;;;3.37;;
5869;SDS011;2961;47.702;9.410;2024-02-14T02:59:57;3.03;;;2.83;;
5869;SDS011;2961;47.702;9.410;2024-02-14T03:02:24;10.90;;;3.60;;
5869;SDS011;2961;47.702;9.410;2024-02-14T03:04:51;4.20;;;3.80;;
5869;SDS011;2961;47.702;9.410;2024-02-14T03:07:18;6.40;;;4.67;;
5869;SDS011;2961;47.702;9.410;2024-02-14T03:09:45;4.90;;;4.00;;
5869;SDS011;2961;47.702;9.410;2024-02-14T03:12:12;7.10;;;3.90;;
5869;SDS011;2961;47.702;9.410;2024-02-14T03:14:42;5.27;;;3.73;;
5869;SDS011;2961;47.702;9.410;2024-02-14T03:17:09;11.53;;;4.50;;
5869;SDS011;2961;47.702;9.410;2024-02-14T03:19:37;10.27;;;4.50;;
5869;SDS011;2961;47.702;9.410;2024-02-14T03:22:06;6.80;;;4.40;;
5869;SDS011;2961;47.702;9.410;2024-02-14T03:24:33;6.37;;;4.80;;
5869;SDS011;2961;47.702;9.410;2024-02-14T03:27:02;4.60;;;3.70;;
5869;SDS011;2961;47.702;9.410;2024-02-14T03:29:30;5.60;;;4.10;;
5869;SDS011;2961;47.702;9.410;2024-02-14T03:31:58;9.53;;;4.47;;
5869;SDS011;2961;47.702;9.410;2024-02-14T03:34:29;11.63;;;5.40;;
5869;SDS011;2961;47.702;9.410;2024-02-14T03:36:58;7.53;;;3.97;;
5869;SDS011;2961;47.702;9.410;2024-02-14T03:39:26;6.10;;;4.77;;
5869;SDS011;2961;47.702;9.410;2024-02-14T03:41:53;6.00;;;4.10;;
5869;SDS011;2961;47.702;9.410;2024-02-14T03:44:20;7.63;;;4.50;;
5869;SDS011;2961;47.702;9.410;2024-02-14T03:46:47;9.20;;;4.10;;
5869;SDS011;2961;47.702;9.410;2024-02-14T03:49:16;9.43;;;4.33;;
5869;SDS011;2961;47.702;9.410;2024-02-14T03:51:43;5.17;;;3.90;;
5869;SDS011;2961;47.702;9.410;2024-02-14T03:54:09;8.47;;;4.60;;
5869;SDS011;2961;47.702;9.410;2024-02-14T03:56:37;7.40;;;3.40;;
5869;SDS011;2961;47.702;9.410;2024-02-14T03:59:03;6.70;;;4.80;;
5869;SDS011;2961;47.702;9.410;2024-02-14T04:01:32;8.47;;;4.00;;
5869;SDS011;2961;47.702;9.410;2024-02-14T04:04:00;6.70;;;4.33;;
5869;SDS011;2961;47.702;9.410;2024-02-14T04:06:29;7.93;;;4.50;;
5869;SDS011;2961;47.702;9.410;2024-02-14T04:08:57;10.53;;;3.83;;
5869;SDS011;2961;47.702;9.410;2024-02-14T04:11:24;11.17;;;4.77;;
5869;SDS011;2961;47.702;9.410;2024-02-14T04:13:51;4.80;;;4.37;;
5869;SDS011;2961;47.702;9.410;2024-02-14T04:16:19;4.87;;;4.07;;
5869;SDS011;2961;47.702;9.410;2024-02-14T04:18:46;4.30;;;3.93;;
5869;SDS011;2961;47.702;9.410;2024-02-14T04:21:13;5.77;;;4.10;;
5869;SDS011;2961;47.702;9.410;2024-02-14T04:23:41;10.07;;;4.00;;
5869;SDS011;2961;47.702;9.410;2024-02-14T04:26:08;5.23;;;4.73;;
5869;SDS011;2961;47.702;9.410;2024-02-14T04:28:35;4.27;;;3.87;;
5869;SDS011;2961;47.702;9.410;2024-02-14T04:31:05;4.50;;;4.13;;
5869;SDS011;2961;47.702;9.410;2024-02-14T04:33:32;8.07;;;4.47;;
5869;SDS011;2961;47.702;9.410;2024-02-14T04:35:59;5.80;;;4.27;;
5869;SDS011;2961;47.702;9.410;2024-02-14T04:38:25;6.90;;;4.20;;
5869;SDS011;2961;47.702;9.410;2024-02-14T04:40:55;6.33;;;4.50;;
5869;SDS011;2961;47.702;9.410;2024-02-14T04:43:23;7.30;;;4.97;;
5869;SDS011;2961;47.702;9.410;2024-02-14T04:45:50;6.80;;;4.43;;
5869;SDS011;2961;47.702;9.410;2024-02-14T04:48:17;9.80;;;5.47;;
5869;SDS011;2961;47.702;9.410;2024-02-14T04:50:43;10.60;;;5.27;;
5869;SDS011;2961;47.702;9.410;2024-02-14T04:53:10;10.63;;;4.60;;
5869;SDS011;2961;47.702;9.410;2024-02-14T04:55:37;4.90;;;4.50;;
5869;SDS011;2961;47.702;9.410;2024-02-14T04:58:05;8.63;;;5.43;;
5869;SDS011;2961;47.702;9.410;2024-02-14T05:00:32;7.83;;;4.60;;
5869;SDS011;2961;47.702;9.410;2024-02-14T05:02:58;4.20;;;3.77;;
5869;SDS011;2961;47.702;9.410;2024-02-14T05:05:26;6.50;;;4.10;;
5869;SDS011;2961;47.702;9.410;2024-02-14T05:07:53;5.13;;;4.50;;
5869;SDS011;2961;47.702;9.410;2024-02-14T05:10:19;4.93;;;4.43;;
5869;SDS011;2961;47.702;9.410;2024-02-14T05:12:46;6.60;;;4.00;;
5869;SDS011;2961;47.702;9.410;2024-02-14T05:15:15;8.93;;;4.93;;
5869;SDS011;2961;47.702;9.410;2024-02-14T05:17:42;4.80;;;4.03;;
5869;SDS011;2961;47.702;9.410;2024-02-14T05:20:09;5.10;;;4.60;;
5869;SDS011;2961;47.702;9.410;2024-02-14T05:22:36;5.13;;;4.73;;
5869;SDS011;2961;47.702;9.410;2024-02-14T05:25:04;4.90;;;3.90;;
5869;SDS011;2961;47.702;9.410;2024-02-14T05:27:32;6.70;;;4.37;;
5869;SDS011;2961;47.702;9.410;2024-02-14T05:29:59;11.53;;;5.30;;
5869;SDS011;2961;47.702;9.410;2024-02-14T05:32:27;6.63;;;4.70;;
5869;SDS011;2961;47.702;9.410;2024-02-14T05:34:54;7.03;;;6.20;;
5869;SDS011;2961;47.702;9.410;2024-02-14T05:37:21;10.10;;;5.60;;
5869;SDS011;2961;47.702;9.410;2024-02-14T05:39:48;6.17;;;5.33;;
5869;SDS011;2961;47.702;9.410;2024-02-14T05:42:15;6.00;;;5.13;;
5869;SDS011;2961;47.702;9.410;2024-02-14T05:44:42;6.37;;;4.90;;
5869;SDS011;2961;47.702;9.410;2024-02-14T05:47:09;8.07;;;4.80;;
5869;SDS011;2961;47.702;9.410;2024-02-14T05:49:38;7.70;;;4.77;;
5869;SDS011;2961;47.702;9.410;2024-02-14T05:52:05;7.97;;;5.50;;
5869;SDS011;2961;47.702;9.410;2024-02-14T05:54:32;6.03;;;5.20;;
5869;SDS011;2961;47.702;9.410;2024-02-14T05:56:59;7.90;;;4.97;;
5869;SDS011;2961;47.702;9.410;2024-02-14T05:59:26;6.23;;;4.17;;
5869;SDS011;2961;47.702;9.410;2024-02-14T06:01:53;16.13;;;4.97;;
5869;SDS011;2961;47.702;9.410;2024-02-14T06:04:19;5.40;;;4.03;;
5869;SDS011;2961;47.702;9.410;2024-02-14T06:06:48;6.83;;;4.23;;
5869;SDS011;2961;47.702;9.410;2024-02-14T06:09:14;6.50;;;5.30;;
5869;SDS011;2961;47.702;9.410;2024-02-14T06:11:41;5.17;;;4.70;;
5869;SDS011;2961;47.702;9.410;2024-02-14T06:14:09;6.70;;;4.87;;
5869;SDS011;2961;47.702;9.410;2024-02-14T06:16:36;5.60;;;5.03;;
5869;SDS011;2961;47.702;9.410;2024-02-14T06:19:03;6.17;;;5.10;;
5869;SDS011;2961;47.702;9.410;2024-02-14T06:21:30;8.17;;;4.23;;
5869;SDS011;2961;47.702;9.410;2024-02-14T06:23:59;10.77;;;6.40;;
5869;SDS011;2961;47.702;9.410;2024-02-14T06:26:26;12.13;;;5.90;;
5869;SDS011;2961;47.702;9.410;2024-02-14T06:28:53;15.03;;;7.90;;
5869;SDS011;2961;47.702;9.410;2024-02-14T06:31:20;20.50;;;11.07;;
5869;SDS011;2961;47.702;9.410;2024-02-14T06:33:48;20.50;;;10.53;;
5869;SDS011;2961;47.702;9.410;2024-02-14T06:36:15;16.13;;;9.53;;
5869;SDS011;2961;47.702;9.410;2024-02-14T06:38:42;17.63;;;8.40;;
5869;SDS011;2961;47.702;9.410;2024-02-14T06:41:12;16.33;;;9.27;;
5869;SDS011;2961;47.702;9.410;2024-02-14T06:43:39;13.90;;;7.77;;
5869;SDS011;2961;47.702;9.410;2024-02-14T06:46:06;14.20;;;6.57;;
5869;SDS011;2961;47.702;9.410;2024-02-14T06:48:32;12.90;;;5.83;;
5869;SDS011;2961;47.702;9.410;2024-02-14T06:50:59;8.90;;;5.30;;
5869;SDS011;2961;47.702;9.410;2024-02-14T06:53:26;7.40;;;5.50;;
5869;SDS011;2961;47.702;9.410;2024-02-14T06:55:53;4.63;;;4.10;;
5869;SDS011;2961;47.702;9.410;2024-02-14T06:58:21;10.40;;;4.87;;
5869;SDS011;2961;47.702;9.410;2024-02-14T07:00:48;12.27;;;5.57;;
5869;SDS011;2961;47.702;9.410;2024-02-14T07:03:15;6.27;;;4.90;;
5869;SDS011;2961;47.702;9.410;2024-02-14T07:05:41;7.57;;;5.53;;
5869;SDS011;2961;47.702;9.410;2024-02-14T07:08:08;5.40;;;4.90;;
5869;SDS011;2961;47.702;9.410;2024-02-14T07:10:35;5.30;;;4.87;;
5869;SDS011;2961;47.702;9.410;2024-02-14T07:13:02;7.67;;;5.17;;
5869;SDS011;2961;47.702;9.410;2024-02-14T07:15:30;9.17;;;5.60;;
5869;SDS011;2961;47.702;9.410;2024-02-14T07:17:57;6.00;;;4.87;;
5869;SDS011;2961;47.702;9.410;2024-02-14T07:20:24;13.43;;;5.80;;
5869;SDS011;2961;47.702;9.410;2024-02-14T07:22:52;12.30;;;6.97;;
5869;SDS011;2961;47.702;9.410;2024-02-14T07:25:20;7.57;;;5.57;;
5869;SDS011;2961;47.702;9.410;2024-02-14T07:27:47;8.50;;;6.13;;
5869;SDS011;2961;47.702;9.410;2024-02-14T07:30:14;8.23;;;5.63;;
5869;SDS011;2961;47.702;9.410;2024-02-14T07:32:43;11.77;;;6.30;;
5869;SDS011;2961;47.702;9.410;2024-02-14T07:35:10;6.00;;;5.40;;
5869;SDS011;2961;47.702;9.410;2024-02-14T07:37:38;7.80;;;6.10;;
5869;SDS011;2961;47.702;9.410;2024-02-14T07:40:05;8.73;;;5.30;;
5869;SDS011;2961;47.702;9.410;2024-02-14T07:42:33;11.03;;;6.60;;
5869;SDS011;2961;47.702;9.410;2024-02-14T07:44:59;11.53;;;8.90;;
5869;SDS011;2961;47.702;9.410;2024-02-14T07:47:28;19.83;;;11.10;;
5869;SDS011;2961;47.702;9.410;2024-02-14T07:49:56;19.17;;;9.50;;
5869;SDS011;2961;47.702;9.410;2024-02-14T07:52:23;25.97;;;11.57;;
5869;SDS011;2961;47.702;9.410;2024-02-14T07:54:51;13.93;;;9.40;;
5869;SDS011;2961;47.702;9.410;2024-02-14T07:57:20;18.53;;;7.40;;
5869;SDS011;2961;47.702;9.410;2024-02-14T07:59:48;5.83;;;4.00;;
5869;SDS011;2961;47.702;9.410;2024-02-14T08:02:15;5.40;;;4.10;;
5869;SDS011;2961;47.702;9.410;2024-02-14T08:04:41;5.47;;;3.70;;
5869;SDS011;2961;47.702;9.410;2024-02-14T08:07:10;8.53;;;4.70;;
5869;SDS011;2961;47.702;9.410;2024-02-14T08:09:36;11.63;;;7.50;;
5869;SDS011;2961;47.702;9.410;2024-02-14T08:12:04;7.83;;;5.33;;
5869;SDS011;2961;47.702;9.410;2024-02-14T08:14:32;7.20;;;4.83;;
5869;SDS011;2961;47.702;9.410;2024-02-14T08:16:58;22.73;;;8.13;;
5869;SDS011;2961;47.702;9.410;2024-02-14T08:19:25;5.20;;;3.60;;
5869;SDS011;2961;47.702;9.410;2024-02-14T08:21:52;8.37;;;2.60;;
5869;SDS011;2961;47.702;9.410;2024-02-14T08:24:24;13.80;;;3.57;;
5869;SDS011;2961;47.702;9.410;2024-02-14T08:26:51;7.63;;;2.77;;
5869;SDS011;2961;47.702;9.410;2024-02-14T08:29:18;2.63;;;2.20;;
5869;SDS011;2961;47.702;9.410;2024-02-14T08:31:45;2.20;;;2.10;;
5869;SDS011;2961;47.702;9.410;2024-02-14T08:34:13;1.90;;;1.80;;
5869;SDS011;2961;47.702;9.410;2024-02-14T08:36:40;4.57;;;2.10;;
5869;SDS011;2961;47.702;9.410;2024-02-14T08:39:07;5.90;;;2.27;;
5869;SDS011;2961;47.702;9.410;2024-02-14T08:41:36;2.37;;;1.47;;
5869;SDS011;2961;47.702;9.410;2024-02-14T08:44:03;2.00;;;1.80;;
5869;SDS011;2961;47.702;9.410;2024-02-14T08:46:30;1.80;;;1.70;;
5869;SDS011;2961;47.702;9.410;2024-02-14T08:48:57;1.67;;;1.67;;
5869;SDS011;2961;47.702;9.410;2024-02-14T08:51:27;1.83;;;1.67;;
5869;SDS011;2961;47.702;9.410;2024-02-14T08:53:53;2.37;;;2.20;;
5869;SDS011;2961;47.702;9.410;2024-02-14T08:56:24;1.60;;;1.23;;
5869;SDS011;2961;47.702;9.410;2024-02-14T08:58:52;2.00;;;1.77;;
5869;SDS011;2961;47.702;9.410;2024-02-14T09:01:19;2.60;;;1.60;;
5869;SDS011;2961;47.702;9.410;2024-02-14T09:03:46;2.30;;;1.70;;
5869;SDS011;2961;47.702;9.410;2024-02-14T09:06:13;1.93;;;1.83;;
5869;SDS011;2961;47.702;9.410;2024-02-14T09:08:40;2.33;;;2.17;;
5869;SDS011;2961;47.702;9.410;2024-02-14T09:11:07;1.73;;;1.60;;
5869;SDS011;2961;47.702;9.410;2024-02-14T09:13:34;1.80;;;1.70;;
5869;SDS011;2961;47.702;9.410;2024-02-14T09:16:02;3.97;;;2.60;;
5869;SDS011;2961;47.702;9.410;2024-02-14T09:18:30;2.03;;;1.10;;
5869;SDS011;2961;47.702;9.410;2024-02-14T09:20:57;2.70;;;1.90;;
5869;SDS011;2961;47.702;9.410;2024-02-14T09:23:24;1.80;;;1.30;;
5869;SDS011;2961;47.702;9.410;2024-02-14T09:25:51;1.17;;;1.07;;
5869;SDS011;2961;47.702;9.410;2024-02-14T09:28:19;2.90;;;1.80;;
5869;SDS011;2961;47.702;9.410;2024-02-14T09:30:46;2.23;;;2.07;;
5869;SDS011;2961;47.702;9.410;2024-02-14T09:33:14;2.73;;;1.70;;
5869;SDS011;2961;47.702;9.410;2024-02-14T09:35:41;3.47;;;1.60;;
5869;SDS011;2961;47.702;9.410;2024-02-14T09:38:09;2.60;;;1.43;;
5869;SDS011;2961;47.702;9.410;2024-02-14T09:40:37;2.57;;;1.40;;
5869;SDS011;2961;47.702;9.410;2024-02-14T09:43:05;4.40;;;1.70;;
5869;SDS011;2961;47.702;9.410;2024-02-14T09:45:34;1.53;;;1.23;;
5869;SDS011;2961;47.702;9.410;2024-02-14T09:48:03;3.00;;;1.43;;
5869;SDS011;2961;47.702;9.410;2024-02-14T09:50:32;1.77;;;1.40;;
5869;SDS011;2961;47.702;9.410;2024-02-14T09:52:59;1.50;;;1.40;;
5869;SDS011;2961;47.702;9.410;2024-02-14T09:55:28;1.77;;;1.60;;
5869;SDS011;2961;47.702;9.410;2024-02-14T09:57:55;37.43;;;21.20;;
5869;SDS011;2961;47.702;9.410;2024-02-14T10:00:24;19.40;;;10.90;;
5869;SDS011;2961;47.702;9.410;2024-02-14T10:02:51;45.27;;;23.40;;
5869;SDS011;2961;47.702;9.410;2024-02-14T10:05:19;12.27;;;6.73;;
5869;SDS011;2961;47.702;9.410;2024-02-14T10:07:48;3.70;;;2.10;;
5869;SDS011;2961;47.702;9.410;2024-02-14T10:10:14;2.47;;;2.00;;
5869;SDS011;2961;47.702;9.410;2024-02-14T10:12:41;1.40;;;1.30;;
5869;SDS011;2961;47.702;9.410;2024-02-14T10:15:08;4.10;;;1.90;;
5869;SDS011;2961;47.702;9.410;2024-02-14T10:17:35;2.60;;;2.37;;
5869;SDS011;2961;47.702;9.410;2024-02-14T10:20:06;25.13;;;12.57;;
5869;SDS011;2961;47.702;9.410;2024-02-14T10:22:33;17.30;;;10.40;;
5869;SDS011;2961;47.702;9.410;2024-02-14T10:25:03;6.50;;;4.33;;
5869;SDS011;2961;47.702;9.410;2024-02-14T10:27:33;3.40;;;2.90;;
5869;SDS011;2961;47.702;9.410;2024-02-14T10:30:02;2.70;;;2.50;;
5869;SDS011;2961;47.702;9.410;2024-02-14T10:32:30;2.20;;;1.93;;
5869;SDS011;2961;47.702;9.410;2024-02-14T10:34:58;1.60;;;1.50;;
5869;SDS011;2961;47.702;9.410;2024-02-14T10:37:26;2.07;;;1.90;;
5869;SDS011;2961;47.702;9.410;2024-02-14T10:39:55;1.60;;;1.50;;
5869;SDS011;2961;47.702;9.410;2024-02-14T10:42:27;3.63;;;1.40;;
5869;SDS011;2961;47.702;9.410;2024-02-14T10:44:54;1.80;;;1.70;;
5869;SDS011;2961;47.702;9.410;2024-02-14T10:47:21;1.23;;;1.00;;
5869;SDS011;2961;47.702;9.410;2024-02-14T10:49:51;1.30;;;1.23;;
5869;SDS011;2961;47.702;9.410;2024-02-14T10:52:20;1.53;;;1.17;;
5869;SDS011;2961;47.702;9.410;2024-02-14T10:54:56;1.23;;;1.13;;
5869;SDS011;2961;47.702;9.410;2024-02-14T10:57:23;1.63;;;1.07;;
5869;SDS011;2961;47.702;9.410;2024-02-14T10:59:52;5.00;;;1.33;;
5869;SDS011;2961;47.702;9.410;2024-02-14T11:02:20;1.33;;;1.07;;
5869;SDS011;2961;47.702;9.410;2024-02-14T11:04:48;3.40;;;1.50;;
5869;SDS011;2961;47.702;9.410;2024-02-14T11:07:18;1.27;;;1.17;;
5869;SDS011;2961;47.702;9.410;2024-02-14T11:09:48;1.67;;;1.57;;
5869;SDS011;2961;47.702;9.410;2024-02-14T11:12:25;5.43;;;1.50;;
5869;SDS011;2961;47.702;9.410;2024-02-14T11:14:54;2.67;;;1.67;;
5869;SDS011;2961;47.702;9.410;2024-02-14T11:17:25;5.43;;;2.10;;
5869;SDS011;2961;47.702;9.410;2024-02-14T11:19:52;3.33;;;1.67;;
5869;SDS011;2961;47.702;9.410;2024-02-14T11:22:20;2.60;;;1.47;;
5869;SDS011;2961;47.702;9.410;2024-02-14T11:24:48;1.97;;;1.87;;
5869;SDS011;2961;47.702;9.410;2024-02-14T11:27:17;8.63;;;2.07;;
5869;SDS011;2961;47.702;9.410;2024-02-14T11:29:50;5.93;;;2.30;;
5869;SDS011;2961;47.702;9.410;2024-02-14T11:32:19;2.57;;;1.83;;
5869;SDS011;2961;47.702;9.410;2024-02-14T11:34:58;5.10;;;2.13;;
5869;SDS011;2961;47.702;9.410;2024-02-14T11:37:28;2.23;;;1.70;;
5869;SDS011;2961;47.702;9.410;2024-02-14T11:39:56;2.50;;;1.70;;
5869;SDS011;2961;47.702;9.410;2024-02-14T11:42:23;5.33;;;1.90;;
5869;SDS011;2961;47.702;9.410;2024-02-14T11:44:50;5.93;;;1.90;;
5869;SDS011;2961;47.702;9.410;2024-02-14T11:47:16;3.80;;;1.67;;
5869;SDS011;2961;47.702;9.410;2024-02-14T11:49:45;4.57;;;1.47;;
5869;SDS011;2961;47.702;9.410;2024-02-14T11:52:12;2.23;;;2.03;;
5869;SDS011;2961;47.702;9.410;2024-02-14T11:54:39;1.90;;;1.60;;
5869;SDS011;2961;47.702;9.410;2024-02-14T11:57:06;2.63;;;1.43;;
5869;SDS011;2961;47.702;9.410;2024-02-14T11:59:33;3.80;;;1.67;;
5869;SDS011;2961;47.702;9.410;2024-02-14T12:02:00;2.10;;;1.40;;
5869;SDS011;2961;47.702;9.410;2024-02-14T12:04:28;2.93;;;1.53;;
5869;SDS011;2961;47.702;9.410;2024-02-14T12:06:56;3.03;;;1.50;;
5869;SDS011;2961;47.702;9.410;2024-02-14T12:09:23;1.13;;;1.10;;
5869;SDS011;2961;47.702;9.410;2024-02-14T12:11:50;2.13;;;1.60;;
5869;SDS011;2961;47.702;9.410;2024-02-14T12:14:17;5.40;;;1.40;;
5869;SDS011;2961;47.702;9.410;2024-02-14T12:16:49;4.97;;;1.70;;
5869;SDS011;2961;47.702;9.410;2024-02-14T12:19:16;2.20;;;1.87;;
5869;SDS011;2961;47.702;9.410;2024-02-14T12:21:44;5.00;;;1.60;;
5869;SDS011;2961;47.702;9.410;2024-02-14T12:24:15;2.43;;;1.70;;
5869;SDS011;2961;47.702;9.410;2024-02-14T12:26:42;3.27;;;1.47;;
5869;SDS011;2961;47.702;9.410;2024-02-14T12:29:10;1.70;;;1.60;;
5869;SDS011;2961;47.702;9.410;2024-02-14T12:31:38;1.97;;;1.77;;
5869;SDS011;2961;47.702;9.410;2024-02-14T12:34:05;1.87;;;1.60;;
5869;SDS011;2961;47.702;9.410;2024-02-14T12:36:32;2.40;;;1.47;;
5869;SDS011;2961;47.702;9.410;2024-02-14T12:38:59;2.17;;;1.40;;
5869;SDS011;2961;47.702;9.410;2024-02-14T12:41:28;4.63;;;2.00;;
5869;SDS011;2961;47.702;9.410;2024-02-14T12:43:56;3.17;;;1.83;;
5869;SDS011;2961;47.702;9.410;2024-02-14T12:46:23;3.27;;;1.20;;
5869;SDS011;2961;47.702;9.410;2024-02-14T12:48:50;1.40;;;1.30;;
5869;SDS011;2961;47.702;9.410;2024-02-14T12:51:16;2.70;;;1.47;;
5869;SDS011;2961;47.702;9.410;2024-02-14T12:53:43;9.77;;;1.50;;
5869;SDS011;2961;47.702;9.410;2024-02-14T12:56:10;7.07;;;1.67;;
5869;SDS011;2961;47.702;9.410;2024-02-14T12:58:38;3.90;;;1.53;;
5869;SDS011;2961;47.702;9.410;2024-02-14T13:01:05;2.07;;;1.40;;
5869;SDS011;2961;47.702;9.410;2024-02-14T13:03:32;4.03;;;1.20;;
5869;SDS011;2961;47.702;9.410;2024-02-14T13:06:00;3.20;;;1.07;;
5869;SDS011;2961;47.702;9.410;2024-02-14T13:08:27;1.00;;;1.00;;
5869;SDS011;2961;47.702;9.410;2024-02-14T13:10:54;1.73;;;1.47;;
5869;SDS011;2961;47.702;9.410;2024-02-14T13:13:22;1.27;;;1.00;;
5869;SDS011;2961;47.702;9.410;2024-02-14T13:15:50;1.30;;;1.20;;
5869;SDS011;2961;47.702;9.410;2024-02-14T13:18:17;1.47;;;1.20;;
5869;SDS011;2961;47.702;9.410;2024-02-14T13:20:44;2.60;;;1.20;;
5869;SDS011;2961;47.702;9.410;2024-02-14T13:23:10;3.20;;;1.40;;
5869;SDS011;2961;47.702;9.410;2024-02-14T13:25:39;1.43;;;1.10;;
5869;SDS011;2961;47.702;9.410;2024-02-14T13:28:06;1.03;;;0.93;;
5869;SDS011;2961;47.702;9.410;2024-02-14T13:30:32;2.17;;;1.40;;
5869;SDS011;2961;47.702;9.410;2024-02-14T13:33:00;3.57;;;1.30;;
5869;SDS011;2961;47.702;9.410;2024-02-14T13:35:28;1.37;;;1.27;;
5869;SDS011;2961;47.702;9.410;2024-02-14T13:37:56;4.23;;;0.70;;
5869;SDS011;2961;47.702;9.410;2024-02-14T13:40:23;2.93;;;0.97;;
5869;SDS011;2961;47.702;9.410;2024-02-14T13:42:50;1.53;;;1.10;;
5869;SDS011;2961;47.702;9.410;2024-02-14T13:45:17;4.00;;;1.57;;
5869;SDS011;2961;47.702;9.410;2024-02-14T13:47:44;8.67;;;1.53;;
5869;SDS011;2961;47.702;9.410;2024-02-14T13:50:12;2.80;;;1.87;;
5869;SDS011;2961;47.702;9.410;2024-02-14T13:52:39;2.13;;;1.73;;
5869;SDS011;2961;47.702;9.410;2024-02-14T13:55:06;3.20;;;1.80;;
5869;SDS011;2961;47.702;9.410;2024-02-14T13:57:35;1.77;;;1.67;;
5869;SDS011;2961;47.702;9.410;2024-02-14T14:00:04;2.33;;;2.10;;
5869;SDS011;2961;47.702;9.410;2024-02-14T14:02:34;2.20;;;1.80;;
5869;SDS011;2961;47.702;9.410;2024-02-14T14:05:02;3.40;;;1.70;;
5869;SDS011;2961;47.702;9.410;2024-02-14T14:07:31;4.37;;;1.70;;
5869;SDS011;2961;47.702;9.410;2024-02-14T14:09:58;4.37;;;1.63;;
5869;SDS011;2961;47.702;9.410;2024-02-14T14:12:25;3.93;;;1.70;;
5869;SDS011;2961;47.702;9.410;2024-02-14T14:14:51;1.43;;;1.33;;
5869;SDS011;2961;47.702;9.410;2024-02-14T14:17:18;1.73;;;1.63;;
5869;SDS011;2961;47.702;9.410;2024-02-14T14:19:45;2.80;;;2.20;;
5869;SDS011;2961;47.702;9.410;2024-02-14T14:22:12;1.80;;;1.20;;
5869;SDS011;2961;47.702;9.410;2024-02-14T14:24:41;4.70;;;1.97;;
5869;SDS011;2961;47.702;9.410;2024-02-14T14:27:07;2.93;;;1.67;;
5869;SDS011;2961;47.702;9.410;2024-02-14T14:29:38;14.03;;;2.10;;
5869;SDS011;2961;47.702;9.410;2024-02-14T14:32:06;2.73;;;2.00;;
5869;SDS011;2961;47.702;9.410;2024-02-14T14:34:33;3.92;;;2.00;;
5869;SDS011;2961;47.702;9.410;2024-02-14T14:37:00;2.10;;;2.00;;
5869;SDS011;2961;47.702;9.410;2024-02-14T14:39:29;4.53;;;1.97;;
5869;SDS011;2961;47.702;9.410;2024-02-14T14:41:58;2.30;;;1.87;;
5869;SDS011;2961;47.702;9.410;2024-02-14T14:44:25;2.23;;;2.03;;
5869;SDS011;2961;47.702;9.410;2024-02-14T14:46:52;3.27;;;1.73;;
5869;SDS011;2961;47.702;9.410;2024-02-14T14:49:19;1.90;;;1.77;;
5869;SDS011;2961;47.702;9.410;2024-02-14T14:51:45;1.60;;;1.47;;
5869;SDS011;2961;47.702;9.410;2024-02-14T14:54:13;2.77;;;2.03;;
5869;SDS011;2961;47.702;9.410;2024-02-14T14:56:40;2.50;;;1.90;;
5869;SDS011;2961;47.702;9.410;2024-02-14T14:59:08;12.80;;;2.00;;
5869;SDS011;2961;47.702;9.410;2024-02-14T15:01:35;3.10;;;1.77;;
5869;SDS011;2961;47.702;9.410;2024-02-14T15:04:02;3.40;;;1.70;;
5869;SDS011;2961;47.702;9.410;2024-02-14T15:06:31;2.47;;;1.53;;
5869;SDS011;2961;47.702;9.410;2024-02-14T15:08:58;4.20;;;1.60;;
5869;SDS011;2961;47.702;9.410;2024-02-14T15:11:26;3.45;;;1.80;;
5869;SDS011;2961;47.702;9.410;2024-02-14T15:13:54;1.80;;;1.70;;